sensor_id;sensor_type;location;lat;lon;timestamp;P1;durP1;ratioP1;P2;durP2;ratioP2
3141;SDS011;1581;51.568;6.998;2022-11-04T00:00:31;2.70;;;1.20;;
3141;SDS011;1581;51.568;6.998;2022-11-04T00:03:02;6.40;;;1.20;;
3141;SDS011;1581;51.568;6.998;2022-11-04T00:05:31;1.30;;;1.20;;
3141;SDS011;1581;51.568;6.998;2022-11-04T00:08:01;1.67;;;1.10;;
3141;SDS011;1581;51.568;6.998;2022-11-04T00:10:46;4.03;;;1.50;;
3141;SDS011;1581;51.568;6.998;2022-11-04T00:13:36;2.93;;;1.23;;
3141;SDS011;1581;51.568;6.998;2022-11-04T00:16:05;2.73;;;1.30;;
3141;SDS011;1581;51.568;6.998;2022-11-04T00:18:53;1.07;;;0.93;;
3141;SDS011;1581;51.568;6.998;2022-11-04T00:21:22;4.20;;;1.37;;
3141;SDS011;1581;51.568;6.998;2022-11-04T00:24:09;1.07;;;0.97;;
3141;SDS011;1581;51.568;6.998;2022-11-04T00:26:56;3.60;;;0.90;;
3141;SDS011;1581;51.568;6.998;2022-11-04T00:29:43;2.40;;;1.60;;
3141;SDS011;1581;51.568;6.998;2022-11-04T00:32:11;1.20;;;1.10;;
3141;SDS011;1581;51.568;6.998;2022-11-04T00:34:58;1.60;;;1.43;;
3141;SDS011;1581;51.568;6.998;2022-11-04T00:37:28;1.73;;;1.20;;
3141;SDS011;1581;51.568;6.998;2022-11-04T00:40:02;0.97;;;0.90;;
3141;SDS011;1581;51.568;6.998;2022-11-04T00:42:33;1.30;;;1.20;;
3141;SDS011;1581;51.568;6.998;2022-11-04T00:45:03;4.30;;;1.20;;
3141;SDS011;1581;51.568;6.998;2022-11-04T00:47:34;1.87;;;1.23;;
3141;SDS011;1581;51.568;6.998;2022-11-04T00:50:06;1.30;;;1.13;;
3141;SDS011;1581;51.568;6.998;2022-11-04T00:52:36;2.37;;;1.00;;
3141;SDS011;1581;51.568;6.998;2022-11-04T00:55:05;2.40;;;1.60;;
3141;SDS011;1581;51.568;6.998;2022-11-04T00:57:36;3.63;;;1.33;;
3141;SDS011;1581;51.568;6.998;2022-11-04T01:00:05;1.50;;;1.30;;
3141;SDS011;1581;51.568;6.998;2022-11-04T01:02:36;1.63;;;1.53;;
3141;SDS011;1581;51.568;6.998;2022-11-04T01:05:07;1.40;;;1.30;;
3141;SDS011;1581;51.568;6.998;2022-11-04T01:07:37;1.10;;;1.00;;
3141;SDS011;1581;51.568;6.998;2022-11-04T01:10:09;2.03;;;1.23;;
3141;SDS011;1581;51.568;6.998;2022-11-04T01:12:39;1.10;;;1.10;;
3141;SDS011;1581;51.568;6.998;2022-11-04T01:15:09;1.63;;;1.53;;
3141;SDS011;1581;51.568;6.998;2022-11-04T01:17:42;1.37;;;1.30;;
3141;SDS011;1581;51.568;6.998;2022-11-04T01:20:15;1.40;;;1.40;;
3141;SDS011;1581;51.568;6.998;2022-11-04T01:22:49;3.03;;;1.57;;
3141;SDS011;1581;51.568;6.998;2022-11-04T01:25:33;2.83;;;1.70;;
3141;SDS011;1581;51.568;6.998;2022-11-04T01:28:07;2.60;;;1.70;;
3141;SDS011;1581;51.568;6.998;2022-11-04T01:30:37;1.57;;;1.43;;
3141;SDS011;1581;51.568;6.998;2022-11-04T01:33:08;3.17;;;1.63;;
3141;SDS011;1581;51.568;6.998;2022-11-04T01:35:40;2.07;;;1.70;;
3141;SDS011;1581;51.568;6.998;2022-11-04T01:38:11;2.50;;;2.30;;
3141;SDS011;1581;51.568;6.998;2022-11-04T01:40:44;2.60;;;2.40;;
3141;SDS011;1581;51.568;6.998;2022-11-04T01:43:15;4.67;;;2.30;;
3141;SDS011;1581;51.568;6.998;2022-11-04T01:45:48;4.60;;;2.97;;
3141;SDS011;1581;51.568;6.998;2022-11-04T01:48:24;3.50;;;2.63;;
3141;SDS011;1581;51.568;6.998;2022-11-04T01:50:59;2.80;;;2.60;;
3141;SDS011;1581;51.568;6.998;2022-11-04T01:53:29;3.03;;;2.73;;
3141;SDS011;1581;51.568;6.998;2022-11-04T01:56:04;3.43;;;3.13;;
3141;SDS011;1581;51.568;6.998;2022-11-04T01:58:37;4.37;;;3.00;;
3141;SDS011;1581;51.568;6.998;2022-11-04T02:01:11;3.77;;;3.30;;
3141;SDS011;1581;51.568;6.998;2022-11-04T02:03:42;7.93;;;3.10;;
3141;SDS011;1581;51.568;6.998;2022-11-04T02:06:19;3.47;;;2.90;;
3141;SDS011;1581;51.568;6.998;2022-11-04T02:08:50;5.70;;;3.70;;
3141;SDS011;1581;51.568;6.998;2022-11-04T02:11:20;5.33;;;3.23;;
3141;SDS011;1581;51.568;6.998;2022-11-04T02:14:08;4.50;;;3.17;;
3141;SDS011;1581;51.568;6.998;2022-11-04T02:16:39;4.27;;;2.40;;
3141;SDS011;1581;51.568;6.998;2022-11-04T02:19:17;2.47;;;2.10;;
3141;SDS011;1581;51.568;6.998;2022-11-04T02:22:17;8.47;;;2.90;;
3141;SDS011;1581;51.568;6.998;2022-11-04T02:25:40;16.60;;;2.80;;
3141;SDS011;1581;51.568;6.998;2022-11-04T02:29:02;6.83;;;3.00;;
3141;SDS011;1581;51.568;6.998;2022-11-04T02:32:02;6.47;;;2.73;;
3141;SDS011;1581;51.568;6.998;2022-11-04T02:34:46;7.00;;;3.00;;
3141;SDS011;1581;51.568;6.998;2022-11-04T02:37:32;6.60;;;2.80;;
3141;SDS011;1581;51.568;6.998;2022-11-04T02:40:12;12.37;;;2.67;;
3141;SDS011;1581;51.568;6.998;2022-11-04T02:42:54;6.97;;;2.80;;
3141;SDS011;1581;51.568;6.998;2022-11-04T02:45:31;6.13;;;2.53;;
3141;SDS011;1581;51.568;6.998;2022-11-04T02:48:07;5.23;;;2.83;;
3141;SDS011;1581;51.568;6.998;2022-11-04T02:50:46;12.43;;;3.03;;
3141;SDS011;1581;51.568;6.998;2022-11-04T02:53:25;5.07;;;3.10;;
3141;SDS011;1581;51.568;6.998;2022-11-04T02:56:00;12.83;;;3.57;;
3141;SDS011;1581;51.568;6.998;2022-11-04T02:58:35;12.70;;;3.63;;
3141;SDS011;1581;51.568;6.998;2022-11-04T03:01:11;7.00;;;3.57;;
3141;SDS011;1581;51.568;6.998;2022-11-04T03:03:46;8.10;;;3.47;;
3141;SDS011;1581;51.568;6.998;2022-11-04T03:06:19;4.70;;;3.00;;
3141;SDS011;1581;51.568;6.998;2022-11-04T03:08:51;6.73;;;3.07;;
3141;SDS011;1581;51.568;6.998;2022-11-04T03:11:23;14.33;;;3.70;;
3141;SDS011;1581;51.568;6.998;2022-11-04T03:13:53;6.70;;;3.80;;
3141;SDS011;1581;51.568;6.998;2022-11-04T03:16:31;5.30;;;3.07;;
3141;SDS011;1581;51.568;6.998;2022-11-04T03:19:05;8.33;;;3.20;;
3141;SDS011;1581;51.568;6.998;2022-11-04T03:21:41;9.40;;;3.20;;
3141;SDS011;1581;51.568;6.998;2022-11-04T03:24:17;11.33;;;3.00;;
3141;SDS011;1581;51.568;6.998;2022-11-04T03:26:46;5.10;;;2.67;;
3141;SDS011;1581;51.568;6.998;2022-11-04T03:29:21;6.53;;;2.30;;
3141;SDS011;1581;51.568;6.998;2022-11-04T03:31:59;4.53;;;2.40;;
3141;SDS011;1581;51.568;6.998;2022-11-04T03:34:34;6.67;;;2.07;;
3141;SDS011;1581;51.568;6.998;2022-11-04T03:37:03;7.83;;;2.20;;
3141;SDS011;1581;51.568;6.998;2022-11-04T03:39:31;5.87;;;2.60;;
3141;SDS011;1581;51.568;6.998;2022-11-04T03:42:00;2.80;;;2.03;;
3141;SDS011;1581;51.568;6.998;2022-11-04T03:44:44;6.93;;;1.63;;
3141;SDS011;1581;51.568;6.998;2022-11-04T03:47:16;4.90;;;1.90;;
3141;SDS011;1581;51.568;6.998;2022-11-04T03:49:46;6.70;;;2.97;;
3141;SDS011;1581;51.568;6.998;2022-11-04T03:52:15;6.00;;;2.67;;
3141;SDS011;1581;51.568;6.998;2022-11-04T03:54:44;14.30;;;3.00;;
3141;SDS011;1581;51.568;6.998;2022-11-04T04:00:10;11.83;;;3.17;;
3141;SDS011;1581;51.568;6.998;2022-11-04T04:02:45;4.93;;;3.00;;
3141;SDS011;1581;51.568;6.998;2022-11-04T04:05:26;7.23;;;3.07;;
3141;SDS011;1581;51.568;6.998;2022-11-04T04:07:59;9.97;;;3.33;;
3141;SDS011;1581;51.568;6.998;2022-11-04T04:10:41;9.90;;;3.10;;
3141;SDS011;1581;51.568;6.998;2022-11-04T04:13:24;6.30;;;2.60;;
3141;SDS011;1581;51.568;6.998;2022-11-04T04:16:01;9.17;;;3.10;;
3141;SDS011;1581;51.568;6.998;2022-11-04T04:18:37;14.53;;;3.03;;
3141;SDS011;1581;51.568;6.998;2022-11-04T04:21:11;14.47;;;2.60;;
3141;SDS011;1581;51.568;6.998;2022-11-04T04:23:44;7.17;;;3.43;;
3141;SDS011;1581;51.568;6.998;2022-11-04T04:26:31;4.13;;;2.13;;
3141;SDS011;1581;51.568;6.998;2022-11-04T04:29:20;5.33;;;1.80;;
3141;SDS011;1581;51.568;6.998;2022-11-04T04:31:53;6.47;;;2.00;;
3141;SDS011;1581;51.568;6.998;2022-11-04T04:34:27;12.87;;;2.67;;
3141;SDS011;1581;51.568;6.998;2022-11-04T04:36:59;6.23;;;1.90;;
3141;SDS011;1581;51.568;6.998;2022-11-04T04:39:33;8.33;;;2.50;;
3141;SDS011;1581;51.568;6.998;2022-11-04T04:42:22;7.60;;;2.03;;
3141;SDS011;1581;51.568;6.998;2022-11-04T04:45:08;13.27;;;5.00;;
3141;SDS011;1581;51.568;6.998;2022-11-04T04:47:46;4.40;;;1.30;;
3141;SDS011;1581;51.568;6.998;2022-11-04T04:50:20;5.57;;;2.10;;
3141;SDS011;1581;51.568;6.998;2022-11-04T04:52:52;9.43;;;1.40;;
3141;SDS011;1581;51.568;6.998;2022-11-04T04:55:22;11.40;;;1.80;;
3141;SDS011;1581;51.568;6.998;2022-11-04T04:57:49;6.43;;;1.73;;
3141;SDS011;1581;51.568;6.998;2022-11-04T05:00:18;4.80;;;1.90;;
3141;SDS011;1581;51.568;6.998;2022-11-04T05:02:47;9.30;;;1.50;;
3141;SDS011;1581;51.568;6.998;2022-11-04T05:05:23;9.93;;;1.30;;
3141;SDS011;1581;51.568;6.998;2022-11-04T05:07:50;3.40;;;1.17;;
3141;SDS011;1581;51.568;6.998;2022-11-04T05:10:18;6.53;;;1.60;;
3141;SDS011;1581;51.568;6.998;2022-11-04T05:12:46;8.33;;;1.43;;
3141;SDS011;1581;51.568;6.998;2022-11-04T05:15:32;13.23;;;1.37;;
3141;SDS011;1581;51.568;6.998;2022-11-04T05:18:00;4.13;;;1.70;;
3141;SDS011;1581;51.568;6.998;2022-11-04T05:20:30;5.07;;;1.00;;
3141;SDS011;1581;51.568;6.998;2022-11-04T05:22:58;11.43;;;1.73;;
3141;SDS011;1581;51.568;6.998;2022-11-04T05:25:25;11.33;;;1.70;;
3141;SDS011;1581;51.568;6.998;2022-11-04T05:27:57;7.90;;;1.80;;
3141;SDS011;1581;51.568;6.998;2022-11-04T05:30:29;3.50;;;1.70;;
3141;SDS011;1581;51.568;6.998;2022-11-04T05:32:59;9.40;;;1.93;;
3141;SDS011;1581;51.568;6.998;2022-11-04T05:35:32;10.17;;;2.43;;
3141;SDS011;1581;51.568;6.998;2022-11-04T05:38:03;6.20;;;2.20;;
3141;SDS011;1581;51.568;6.998;2022-11-04T05:40:31;7.93;;;1.77;;
3141;SDS011;1581;51.568;6.998;2022-11-04T05:42:59;7.03;;;2.33;;
3141;SDS011;1581;51.568;6.998;2022-11-04T05:45:31;10.47;;;2.13;;
3141;SDS011;1581;51.568;6.998;2022-11-04T05:48:01;6.90;;;2.10;;
3141;SDS011;1581;51.568;6.998;2022-11-04T05:50:32;7.53;;;2.40;;
3141;SDS011;1581;51.568;6.998;2022-11-04T05:53:02;9.20;;;1.93;;
3141;SDS011;1581;51.568;6.998;2022-11-04T05:55:30;11.40;;;1.87;;
3141;SDS011;1581;51.568;6.998;2022-11-04T05:57:58;7.43;;;2.30;;
3141;SDS011;1581;51.568;6.998;2022-11-04T06:00:28;9.70;;;2.63;;
3141;SDS011;1581;51.568;6.998;2022-11-04T06:02:59;5.20;;;1.53;;
3141;SDS011;1581;51.568;6.998;2022-11-04T06:05:27;10.60;;;2.10;;
3141;SDS011;1581;51.568;6.998;2022-11-04T06:07:57;13.60;;;1.97;;
3141;SDS011;1581;51.568;6.998;2022-11-04T06:10:26;5.83;;;2.07;;
3141;SDS011;1581;51.568;6.998;2022-11-04T06:12:53;5.50;;;2.40;;
3141;SDS011;1581;51.568;6.998;2022-11-04T06:15:21;5.90;;;2.00;;
3141;SDS011;1581;51.568;6.998;2022-11-04T06:17:51;1.80;;;1.30;;
3141;SDS011;1581;51.568;6.998;2022-11-04T06:20:19;5.30;;;1.70;;
3141;SDS011;1581;51.568;6.998;2022-11-04T06:22:46;4.07;;;1.60;;
3141;SDS011;1581;51.568;6.998;2022-11-04T06:25:15;15.87;;;2.10;;
3141;SDS011;1581;51.568;6.998;2022-11-04T06:27:43;10.10;;;1.93;;
3141;SDS011;1581;51.568;6.998;2022-11-04T06:30:12;8.40;;;1.97;;
3141;SDS011;1581;51.568;6.998;2022-11-04T06:32:39;5.97;;;2.30;;
3141;SDS011;1581;51.568;6.998;2022-11-04T06:35:07;5.60;;;2.00;;
3141;SDS011;1581;51.568;6.998;2022-11-04T06:37:37;17.57;;;2.20;;
3141;SDS011;1581;51.568;6.998;2022-11-04T06:40:06;9.43;;;2.00;;
3141;SDS011;1581;51.568;6.998;2022-11-04T06:42:36;6.63;;;1.77;;
3141;SDS011;1581;51.568;6.998;2022-11-04T06:45:04;11.10;;;2.77;;
3141;SDS011;1581;51.568;6.998;2022-11-04T06:47:33;10.27;;;2.00;;
3141;SDS011;1581;51.568;6.998;2022-11-04T06:50:02;15.77;;;2.00;;
3141;SDS011;1581;51.568;6.998;2022-11-04T06:52:30;7.27;;;2.00;;
3141;SDS011;1581;51.568;6.998;2022-11-04T06:54:58;13.33;;;1.90;;
3141;SDS011;1581;51.568;6.998;2022-11-04T06:57:26;8.07;;;2.30;;
3141;SDS011;1581;51.568;6.998;2022-11-04T06:59:56;8.03;;;2.07;;
3141;SDS011;1581;51.568;6.998;2022-11-04T07:02:24;5.17;;;2.10;;
3141;SDS011;1581;51.568;6.998;2022-11-04T07:04:52;9.20;;;2.10;;
3141;SDS011;1581;51.568;6.998;2022-11-04T07:07:19;3.63;;;2.00;;
3141;SDS011;1581;51.568;6.998;2022-11-04T07:09:47;5.83;;;1.90;;
3141;SDS011;1581;51.568;6.998;2022-11-04T07:12:14;6.27;;;2.13;;
3141;SDS011;1581;51.568;6.998;2022-11-04T07:14:42;9.70;;;2.10;;
3141;SDS011;1581;51.568;6.998;2022-11-04T07:17:11;4.10;;;1.77;;
3141;SDS011;1581;51.568;6.998;2022-11-04T07:19:38;6.60;;;2.13;;
3141;SDS011;1581;51.568;6.998;2022-11-04T07:22:06;10.60;;;2.20;;
3141;SDS011;1581;51.568;6.998;2022-11-04T07:24:34;2.80;;;1.80;;
3141;SDS011;1581;51.568;6.998;2022-11-04T07:27:02;7.80;;;1.90;;
3141;SDS011;1581;51.568;6.998;2022-11-04T07:29:31;8.87;;;2.10;;
3141;SDS011;1581;51.568;6.998;2022-11-04T07:31:59;20.90;;;3.03;;
3141;SDS011;1581;51.568;6.998;2022-11-04T07:34:28;10.73;;;1.97;;
3141;SDS011;1581;51.568;6.998;2022-11-04T07:36:55;19.53;;;2.30;;
3141;SDS011;1581;51.568;6.998;2022-11-04T07:39:23;5.83;;;1.93;;
3141;SDS011;1581;51.568;6.998;2022-11-04T07:41:50;19.80;;;2.83;;
3141;SDS011;1581;51.568;6.998;2022-11-04T07:44:18;9.63;;;2.47;;
3141;SDS011;1581;51.568;6.998;2022-11-04T07:46:47;7.03;;;2.63;;
3141;SDS011;1581;51.568;6.998;2022-11-04T07:49:14;8.43;;;2.90;;
3141;SDS011;1581;51.568;6.998;2022-11-04T07:51:43;15.13;;;3.03;;
3141;SDS011;1581;51.568;6.998;2022-11-04T07:54:12;9.70;;;3.30;;
3141;SDS011;1581;51.568;6.998;2022-11-04T07:56:40;10.43;;;2.53;;
3141;SDS011;1581;51.568;6.998;2022-11-04T07:59:07;12.80;;;4.27;;
3141;SDS011;1581;51.568;6.998;2022-11-04T08:01:35;12.00;;;2.80;;
3141;SDS011;1581;51.568;6.998;2022-11-04T08:04:03;8.67;;;2.93;;
3141;SDS011;1581;51.568;6.998;2022-11-04T08:06:31;10.67;;;3.63;;
3141;SDS011;1581;51.568;6.998;2022-11-04T08:09:00;10.23;;;3.37;;
3141;SDS011;1581;51.568;6.998;2022-11-04T08:11:29;30.70;;;3.67;;
3141;SDS011;1581;51.568;6.998;2022-11-04T08:13:56;6.70;;;3.57;;
3141;SDS011;1581;51.568;6.998;2022-11-04T08:16:24;14.00;;;5.20;;
3141;SDS011;1581;51.568;6.998;2022-11-04T08:18:52;16.47;;;3.60;;
3141;SDS011;1581;51.568;6.998;2022-11-04T08:21:20;8.53;;;3.13;;
3141;SDS011;1581;51.568;6.998;2022-11-04T08:23:47;13.30;;;2.70;;
3141;SDS011;1581;51.568;6.998;2022-11-04T08:26:17;7.10;;;2.00;;
3141;SDS011;1581;51.568;6.998;2022-11-04T08:28:47;5.63;;;2.10;;
3141;SDS011;1581;51.568;6.998;2022-11-04T08:31:16;6.53;;;1.70;;
3141;SDS011;1581;51.568;6.998;2022-11-04T08:33:46;8.70;;;2.13;;
3141;SDS011;1581;51.568;6.998;2022-11-04T08:36:15;4.87;;;1.87;;
3141;SDS011;1581;51.568;6.998;2022-11-04T08:38:44;4.63;;;1.50;;
3141;SDS011;1581;51.568;6.998;2022-11-04T08:41:13;6.20;;;1.70;;
3141;SDS011;1581;51.568;6.998;2022-11-04T08:43:45;7.40;;;2.60;;
3141;SDS011;1581;51.568;6.998;2022-11-04T08:46:13;10.03;;;2.30;;
3141;SDS011;1581;51.568;6.998;2022-11-04T08:48:42;9.80;;;2.10;;
3141;SDS011;1581;51.568;6.998;2022-11-04T08:51:11;7.30;;;1.80;;
3141;SDS011;1581;51.568;6.998;2022-11-04T08:53:41;11.00;;;3.27;;
3141;SDS011;1581;51.568;6.998;2022-11-04T08:56:09;9.87;;;2.80;;
3141;SDS011;1581;51.568;6.998;2022-11-04T08:58:39;8.00;;;2.90;;
3141;SDS011;1581;51.568;6.998;2022-11-04T09:01:08;9.60;;;2.27;;
3141;SDS011;1581;51.568;6.998;2022-11-04T09:03:37;6.33;;;1.73;;
3141;SDS011;1581;51.568;6.998;2022-11-04T09:06:07;5.77;;;2.23;;
3141;SDS011;1581;51.568;6.998;2022-11-04T09:08:37;7.63;;;2.33;;
3141;SDS011;1581;51.568;6.998;2022-11-04T09:11:05;14.00;;;3.20;;
3141;SDS011;1581;51.568;6.998;2022-11-04T09:13:36;13.70;;;2.80;;
3141;SDS011;1581;51.568;6.998;2022-11-04T09:16:04;7.97;;;2.30;;
3141;SDS011;1581;51.568;6.998;2022-11-04T09:18:35;5.53;;;2.47;;
3141;SDS011;1581;51.568;6.998;2022-11-04T09:21:03;7.37;;;2.37;;
3141;SDS011;1581;51.568;6.998;2022-11-04T09:23:33;10.90;;;2.17;;
3141;SDS011;1581;51.568;6.998;2022-11-04T09:26:02;6.80;;;1.73;;
3141;SDS011;1581;51.568;6.998;2022-11-04T09:28:33;10.63;;;2.67;;
3141;SDS011;1581;51.568;6.998;2022-11-04T09:31:03;5.90;;;1.80;;
3141;SDS011;1581;51.568;6.998;2022-11-04T09:33:36;4.13;;;1.70;;
3141;SDS011;1581;51.568;6.998;2022-11-04T09:36:04;6.00;;;2.30;;
3141;SDS011;1581;51.568;6.998;2022-11-04T09:38:34;9.00;;;2.83;;
3141;SDS011;1581;51.568;6.998;2022-11-04T09:41:07;18.43;;;2.73;;
3141;SDS011;1581;51.568;6.998;2022-11-04T09:43:47;4.53;;;1.90;;
3141;SDS011;1581;51.568;6.998;2022-11-04T09:46:22;4.30;;;1.57;;
3141;SDS011;1581;51.568;6.998;2022-11-04T09:48:53;16.53;;;2.17;;
3141;SDS011;1581;51.568;6.998;2022-11-04T09:51:23;10.13;;;2.97;;
3141;SDS011;1581;51.568;6.998;2022-11-04T09:53:53;9.70;;;2.47;;
3141;SDS011;1581;51.568;6.998;2022-11-04T09:56:27;9.53;;;2.20;;
3141;SDS011;1581;51.568;6.998;2022-11-04T09:59:00;6.83;;;2.10;;
3141;SDS011;1581;51.568;6.998;2022-11-04T10:01:30;5.10;;;2.23;;
3141;SDS011;1581;51.568;6.998;2022-11-04T10:04:19;8.90;;;1.77;;
3141;SDS011;1581;51.568;6.998;2022-11-04T10:07:05;8.50;;;2.57;;
3141;SDS011;1581;51.568;6.998;2022-11-04T10:09:49;5.50;;;2.27;;
3141;SDS011;1581;51.568;6.998;2022-11-04T10:12:38;8.50;;;1.83;;
3141;SDS011;1581;51.568;6.998;2022-11-04T10:15:42;8.57;;;2.73;;
3141;SDS011;1581;51.568;6.998;2022-11-04T10:18:44;9.57;;;2.00;;
3141;SDS011;1581;51.568;6.998;2022-11-04T10:21:30;12.20;;;2.17;;
3141;SDS011;1581;51.568;6.998;2022-11-04T10:24:11;10.07;;;3.20;;
3141;SDS011;1581;51.568;6.998;2022-11-04T10:26:55;9.37;;;2.20;;
3141;SDS011;1581;51.568;6.998;2022-11-04T10:29:31;2.13;;;1.50;;
3141;SDS011;1581;51.568;6.998;2022-11-04T10:32:04;8.33;;;2.63;;
3141;SDS011;1581;51.568;6.998;2022-11-04T10:34:41;5.17;;;2.23;;
3141;SDS011;1581;51.568;6.998;2022-11-04T10:37:17;8.07;;;2.07;;
3141;SDS011;1581;51.568;6.998;2022-11-04T10:39:45;7.07;;;2.70;;
3141;SDS011;1581;51.568;6.998;2022-11-04T10:42:14;5.20;;;2.00;;
3141;SDS011;1581;51.568;6.998;2022-11-04T10:44:45;5.13;;;1.90;;
3141;SDS011;1581;51.568;6.998;2022-11-04T10:47:19;8.37;;;2.50;;
3141;SDS011;1581;51.568;6.998;2022-11-04T10:50:03;4.97;;;2.07;;
3141;SDS011;1581;51.568;6.998;2022-11-04T10:52:51;5.87;;;2.60;;
3141;SDS011;1581;51.568;6.998;2022-11-04T10:55:29;5.20;;;2.00;;
3141;SDS011;1581;51.568;6.998;2022-11-04T10:58:07;7.83;;;2.53;;
3141;SDS011;1581;51.568;6.998;2022-11-04T11:00:42;12.83;;;2.83;;
3141;SDS011;1581;51.568;6.998;2022-11-04T11:03:24;4.10;;;2.37;;
3141;SDS011;1581;51.568;6.998;2022-11-04T11:06:10;15.10;;;4.07;;
3141;SDS011;1581;51.568;6.998;2022-11-04T11:08:51;11.40;;;3.17;;
3141;SDS011;1581;51.568;6.998;2022-11-04T11:11:39;6.13;;;3.20;;
3141;SDS011;1581;51.568;6.998;2022-11-04T11:14:15;6.03;;;3.57;;
3141;SDS011;1581;51.568;6.998;2022-11-04T11:16:57;8.70;;;3.73;;
3141;SDS011;1581;51.568;6.998;2022-11-04T11:19:47;8.13;;;3.83;;
3141;SDS011;1581;51.568;6.998;2022-11-04T11:22:33;9.23;;;3.60;;
3141;SDS011;1581;51.568;6.998;2022-11-04T11:25:18;16.37;;;3.40;;
3141;SDS011;1581;51.568;6.998;2022-11-04T11:27:51;12.13;;;4.03;;
3141;SDS011;1581;51.568;6.998;2022-11-04T11:30:24;11.00;;;3.90;;
3141;SDS011;1581;51.568;6.998;2022-11-04T11:32:59;5.03;;;4.10;;
3141;SDS011;1581;51.568;6.998;2022-11-04T11:35:33;12.70;;;4.07;;
3141;SDS011;1581;51.568;6.998;2022-11-04T11:38:13;9.77;;;4.17;;
3141;SDS011;1581;51.568;6.998;2022-11-04T11:40:47;16.30;;;3.23;;
3141;SDS011;1581;51.568;6.998;2022-11-04T11:43:20;14.60;;;4.07;;
3141;SDS011;1581;51.568;6.998;2022-11-04T11:45:51;8.10;;;3.27;;
3141;SDS011;1581;51.568;6.998;2022-11-04T11:48:28;8.43;;;3.33;;
3141;SDS011;1581;51.568;6.998;2022-11-04T11:51:09;11.80;;;3.10;;
3141;SDS011;1581;51.568;6.998;2022-11-04T11:53:57;10.70;;;2.73;;
3141;SDS011;1581;51.568;6.998;2022-11-04T11:57:00;8.87;;;3.67;;
3141;SDS011;1581;51.568;6.998;2022-11-04T11:59:47;12.50;;;3.50;;
3141;SDS011;1581;51.568;6.998;2022-11-04T12:02:24;10.10;;;3.80;;
3141;SDS011;1581;51.568;6.998;2022-11-04T12:05:00;10.43;;;3.57;;
3141;SDS011;1581;51.568;6.998;2022-11-04T12:07:29;5.27;;;3.17;;
3141;SDS011;1581;51.568;6.998;2022-11-04T12:10:08;15.30;;;4.10;;
3141;SDS011;1581;51.568;6.998;2022-11-04T12:12:54;7.43;;;3.00;;
3141;SDS011;1581;51.568;6.998;2022-11-04T12:15:33;20.10;;;4.33;;
3141;SDS011;1581;51.568;6.998;2022-11-04T12:18:27;10.57;;;4.00;;
3141;SDS011;1581;51.568;6.998;2022-11-04T12:21:21;7.33;;;3.20;;
3141;SDS011;1581;51.568;6.998;2022-11-04T12:23:58;6.13;;;3.20;;
3141;SDS011;1581;51.568;6.998;2022-11-04T12:26:33;10.33;;;4.23;;
3141;SDS011;1581;51.568;6.998;2022-11-04T12:29:13;7.13;;;4.00;;
3141;SDS011;1581;51.568;6.998;2022-11-04T12:31:58;9.53;;;3.40;;
3141;SDS011;1581;51.568;6.998;2022-11-04T12:34:39;15.43;;;3.10;;
3141;SDS011;1581;51.568;6.998;2022-11-04T12:37:23;10.70;;;3.50;;
3141;SDS011;1581;51.568;6.998;2022-11-04T12:40:15;8.97;;;3.33;;
3141;SDS011;1581;51.568;6.998;2022-11-04T12:42:54;10.07;;;3.67;;
3141;SDS011;1581;51.568;6.998;2022-11-04T12:45:44;14.00;;;5.30;;
3141;SDS011;1581;51.568;6.998;2022-11-04T12:48:36;9.93;;;3.97;;
3141;SDS011;1581;51.568;6.998;2022-11-04T12:51:23;6.20;;;3.30;;
3141;SDS011;1581;51.568;6.998;2022-11-04T12:54:14;10.33;;;4.67;;
3141;SDS011;1581;51.568;6.998;2022-11-04T12:57:01;9.27;;;3.70;;
3141;SDS011;1581;51.568;6.998;2022-11-04T12:59:45;17.03;;;5.07;;
3141;SDS011;1581;51.568;6.998;2022-11-04T13:02:39;9.83;;;3.73;;
3141;SDS011;1581;51.568;6.998;2022-11-04T13:05:18;8.33;;;4.47;;
3141;SDS011;1581;51.568;6.998;2022-11-04T13:08:02;6.90;;;3.63;;
3141;SDS011;1581;51.568;6.998;2022-11-04T13:10:41;12.73;;;4.77;;
3141;SDS011;1581;51.568;6.998;2022-11-04T13:13:16;12.50;;;4.77;;
3141;SDS011;1581;51.568;6.998;2022-11-04T13:15:50;12.97;;;4.30;;
3141;SDS011;1581;51.568;6.998;2022-11-04T13:18:24;9.07;;;2.97;;
3141;SDS011;1581;51.568;6.998;2022-11-04T13:20:58;9.00;;;3.87;;
3141;SDS011;1581;51.568;6.998;2022-11-04T13:23:31;13.97;;;3.73;;
3141;SDS011;1581;51.568;6.998;2022-11-04T13:26:05;8.97;;;3.40;;
3141;SDS011;1581;51.568;6.998;2022-11-04T13:28:39;11.53;;;4.23;;
3141;SDS011;1581;51.568;6.998;2022-11-04T13:31:10;10.30;;;3.70;;
3141;SDS011;1581;51.568;6.998;2022-11-04T13:33:50;15.20;;;2.60;;
3141;SDS011;1581;51.568;6.998;2022-11-04T13:36:31;19.03;;;3.60;;
3141;SDS011;1581;51.568;6.998;2022-11-04T13:39:06;10.47;;;2.90;;
3141;SDS011;1581;51.568;6.998;2022-11-04T13:44:49;7.63;;;3.73;;
3141;SDS011;1581;51.568;6.998;2022-11-04T13:47:23;10.00;;;2.97;;
3141;SDS011;1581;51.568;6.998;2022-11-04T13:50:04;13.97;;;3.63;;
3141;SDS011;1581;51.568;6.998;2022-11-04T13:52:52;9.53;;;3.07;;
3141;SDS011;1581;51.568;6.998;2022-11-04T13:55:20;14.13;;;3.50;;
3141;SDS011;1581;51.568;6.998;2022-11-04T13:57:50;10.33;;;4.40;;
3141;SDS011;1581;51.568;6.998;2022-11-04T14:00:21;6.90;;;3.30;;
3141;SDS011;1581;51.568;6.998;2022-11-04T14:02:51;10.07;;;3.83;;
3141;SDS011;1581;51.568;6.998;2022-11-04T14:08:31;5.80;;;3.30;;
3141;SDS011;1581;51.568;6.998;2022-11-04T14:11:06;16.57;;;3.40;;
3141;SDS011;1581;51.568;6.998;2022-11-04T14:13:48;16.70;;;3.00;;
3141;SDS011;1581;51.568;6.998;2022-11-04T14:16:42;7.60;;;2.30;;
3141;SDS011;1581;51.568;6.998;2022-11-04T14:22:36;15.63;;;2.70;;
3141;SDS011;1581;51.568;6.998;2022-11-04T14:25:25;8.27;;;2.70;;
3141;SDS011;1581;51.568;6.998;2022-11-04T14:30:55;8.63;;;3.33;;
3141;SDS011;1581;51.568;6.998;2022-11-04T14:33:34;21.10;;;3.73;;
3141;SDS011;1581;51.568;6.998;2022-11-04T14:36:24;14.43;;;2.80;;
3141;SDS011;1581;51.568;6.998;2022-11-04T14:39:06;12.67;;;4.20;;
3141;SDS011;1581;51.568;6.998;2022-11-04T14:41:56;24.77;;;3.90;;
3141;SDS011;1581;51.568;6.998;2022-11-04T14:44:28;9.80;;;3.23;;
3141;SDS011;1581;51.568;6.998;2022-11-04T14:47:15;12.23;;;3.07;;
3141;SDS011;1581;51.568;6.998;2022-11-04T14:49:46;12.43;;;3.70;;
3141;SDS011;1581;51.568;6.998;2022-11-04T14:52:19;14.57;;;3.10;;
3141;SDS011;1581;51.568;6.998;2022-11-04T14:55:00;10.43;;;2.90;;
3141;SDS011;1581;51.568;6.998;2022-11-04T14:57:34;19.10;;;3.43;;
3141;SDS011;1581;51.568;6.998;2022-11-04T15:03:02;4.97;;;2.13;;
3141;SDS011;1581;51.568;6.998;2022-11-04T15:05:48;15.53;;;2.70;;
3141;SDS011;1581;51.568;6.998;2022-11-04T15:08:29;6.67;;;2.37;;
3141;SDS011;1581;51.568;6.998;2022-11-04T15:11:02;8.87;;;2.70;;
3141;SDS011;1581;51.568;6.998;2022-11-04T15:13:37;13.00;;;2.70;;
3141;SDS011;1581;51.568;6.998;2022-11-04T15:16:12;10.00;;;2.80;;
3141;SDS011;1581;51.568;6.998;2022-11-04T15:18:43;6.73;;;1.93;;
3141;SDS011;1581;51.568;6.998;2022-11-04T15:21:11;19.20;;;3.43;;
3141;SDS011;1581;51.568;6.998;2022-11-04T15:23:41;9.57;;;2.20;;
3141;SDS011;1581;51.568;6.998;2022-11-04T15:26:21;10.27;;;2.90;;
3141;SDS011;1581;51.568;6.998;2022-11-04T15:28:56;7.07;;;2.97;;
3141;SDS011;1581;51.568;6.998;2022-11-04T15:31:51;15.67;;;3.50;;
3141;SDS011;1581;51.568;6.998;2022-11-04T15:34:21;12.33;;;3.70;;
3141;SDS011;1581;51.568;6.998;2022-11-04T15:36:53;13.97;;;3.43;;
3141;SDS011;1581;51.568;6.998;2022-11-04T15:39:23;8.53;;;2.67;;
3141;SDS011;1581;51.568;6.998;2022-11-04T15:41:58;13.23;;;2.93;;
3141;SDS011;1581;51.568;6.998;2022-11-04T15:44:52;12.00;;;3.00;;
3141;SDS011;1581;51.568;6.998;2022-11-04T15:47:22;8.33;;;2.63;;
3141;SDS011;1581;51.568;6.998;2022-11-04T15:49:53;11.00;;;2.90;;
3141;SDS011;1581;51.568;6.998;2022-11-04T15:52:31;8.07;;;2.70;;
3141;SDS011;1581;51.568;6.998;2022-11-04T15:55:17;10.43;;;3.77;;
3141;SDS011;1581;51.568;6.998;2022-11-04T15:57:49;16.63;;;3.57;;
3141;SDS011;1581;51.568;6.998;2022-11-04T16:00:22;11.40;;;3.80;;
3141;SDS011;1581;51.568;6.998;2022-11-04T16:02:53;6.33;;;3.60;;
3141;SDS011;1581;51.568;6.998;2022-11-04T16:05:24;9.13;;;4.07;;
3141;SDS011;1581;51.568;6.998;2022-11-04T16:07:55;19.90;;;4.90;;
3141;SDS011;1581;51.568;6.998;2022-11-04T16:10:44;10.00;;;4.20;;
3141;SDS011;1581;51.568;6.998;2022-11-04T16:13:22;17.60;;;4.80;;
3141;SDS011;1581;51.568;6.998;2022-11-04T16:15:51;9.47;;;4.57;;